»·PEaware :: AAL614 KMBS-KSAT

AAL614 :: KMBS-KSAT

FLIGHT INFORMATION

Flight Status: Arrived
Operator:
American Airlines
More flights by this operator :: More flights under this callsign
Pilot: John H. (7647)
Aircraft: BOEING 737-800
(B738)
More flights by this aircraft type
Origin: KMBS Mbs Intl
United States
Destination: KSAT San Antonio Intl
United States
More flights between these airports :: More routes between these airports
Route: HASTE STL J101 TWRAY PRX WINDU BRAUN2
File this flight plan on PilotEdge
Remarks: PBN / A1B1C1D1S1S2 DOF / 181011 REG / N806SB EET / KZAU0012 KZKC0053 KZME0128 KZFW0157 KZHU0231 OPR / AAL PER / C RMK / TCAS SIMBRIEF
Altitude:
(Current/Filed)
34,000ft
Speed:
(Current/Filed)
473kts
Departed: 11-Oct-18 05:21 AM
Arrived: 11-Oct-18 08:33 AM
Distance/Time
Traveled:
1086nm/3:11
Distance/Time
To Go:
Arrived

Flight Plot

Page will automatically refresh every two minutes.

Flight plan parsing failed; only flown route is shown


Map Options




Map Legend


Flown Route
Filed Route
Departure Airport
Arrival Airport
Navaid (VOR, NDB)
Fix

Horizontal Profiles

Position Reports

Time Latitude Longitude Heading Altitude Ground
Speed
11-Oct-18 05:01 43.537589 -84.082740 90 664ft 0kts
11-Oct-18 05:02 43.537589 -84.082740 90 664ft 0kts
11-Oct-18 05:03 43.537589 -84.082740 90 664ft 0kts
11-Oct-18 05:04 43.537589 -84.082740 90 664ft 0kts
11-Oct-18 05:05 43.537589 -84.082740 90 664ft 0kts
11-Oct-18 05:06 43.537589 -84.082740 90 664ft 0kts
11-Oct-18 05:07 43.537589 -84.082740 90 664ft 0kts
11-Oct-18 05:08 43.537589 -84.082740 90 664ft 0kts
11-Oct-18 05:09 43.537589 -84.082740 90 664ft 0kts
11-Oct-18 05:10 43.537589 -84.082740 90 664ft 0kts
11-Oct-18 05:11 43.537589 -84.082741 90 664ft 0kts
11-Oct-18 05:12 43.537588 -84.082932 89 664ft 2kts
11-Oct-18 05:13 43.537818 -84.083548 177 665ft 0kts
11-Oct-18 05:14 43.538039 -84.083535 181 665ft 0kts
11-Oct-18 05:15 43.538180 -84.083530 181 664ft 0kts
11-Oct-18 05:16 43.538280 -84.083526 181 664ft 0kts
11-Oct-18 05:17 43.538279 -84.083526 181 664ft 0kts
11-Oct-18 05:18 43.538279 -84.083526 181 664ft 0kts
11-Oct-18 05:19 43.537971 -84.083538 184 665ft 8kts
11-Oct-18 05:20 43.536722 -84.081539 88 664ft 13kts
11-Oct-18 05:21 43.537580 -84.076877 45 660ft 19kts
11-Oct-18 05:22 43.542337 -84.070160 46 650ft 19kts
11-Oct-18 05:23 43.539714 -84.071156 225 654ft 56kts
11-Oct-18 05:24 43.513427 -84.102163 224 1490ft 152kts
11-Oct-18 05:25 43.480608 -84.146559 226 2748ft 189kts
11-Oct-18 05:26 43.434904 -84.205609 224 4131ft 248kts
11-Oct-18 05:27 43.383553 -84.271262 225 6642ft 254kts
11-Oct-18 05:28 43.330399 -84.339165 224 8818ft 269kts
11-Oct-18 05:29 43.273853 -84.411237 220 10357ft 301kts
11-Oct-18 05:30 43.208377 -84.494171 222 11787ft 334kts
11-Oct-18 05:31 43.139731 -84.581083 221 13903ft 339kts
11-Oct-18 05:32 43.072913 -84.665505 221 16200ft 330kts
11-Oct-18 05:33 43.007939 -84.747157 224 17544ft 347kts
11-Oct-18 05:34 42.934994 -84.838806 223 18675ft 370kts
11-Oct-18 05:35 42.859835 -84.932922 220 20300ft 373kts
11-Oct-18 05:36 42.784868 -85.026253 221 22182ft 365kts
11-Oct-18 05:37 42.708751 -85.120646 224 23181ft 380kts
11-Oct-18 05:38 42.633249 -85.223877 230 24102ft 393kts
11-Oct-18 05:39 42.569764 -85.320615 229 25475ft 388kts
11-Oct-18 05:40 42.497747 -85.428919 227 26567ft 391kts
11-Oct-18 05:41 42.436553 -85.520626 226 27225ft 400kts
11-Oct-18 05:42 42.348489 -85.652176 225 28006ft 414kts
11-Oct-18 05:43 42.291118 -85.737623 225 28468ft 423kts
11-Oct-18 05:44 42.199668 -85.873430 227 29210ft 434kts
11-Oct-18 05:45 42.118684 -85.993301 227 30255ft 432kts
11-Oct-18 05:46 42.051805 -86.092063 225 31236ft 425kts
11-Oct-18 05:47 41.974939 -86.205041 226 32872ft 400kts
11-Oct-18 05:48 41.900073 -86.314782 229 33361ft 405kts
11-Oct-18 05:49 41.826789 -86.421994 229 33689ft 412kts
11-Oct-18 05:50 41.748854 -86.535559 229 33855ft 421kts
11-Oct-18 05:51 41.668959 -86.651630 228 33870ft 432kts
11-Oct-18 05:52 41.596239 -86.756926 228 33874ft 442kts
11-Oct-18 05:53 41.511725 -86.878875 228 33874ft 452kts
11-Oct-18 05:54 41.425745 -87.002505 228 33872ft 459kts
11-Oct-18 05:55 41.340301 -87.124905 228 33871ft 459kts
11-Oct-18 05:56 41.253732 -87.248465 228 33870ft 459kts
11-Oct-18 05:57 41.167321 -87.371329 228 33929ft 459kts
11-Oct-18 05:58 41.080184 -87.494773 228 33925ft 461kts
11-Oct-18 05:59 40.993112 -87.617667 228 33923ft 462kts
11-Oct-18 06:00 40.906871 -87.738928 227 33929ft 464kts
11-Oct-18 06:01 40.824833 -87.853866 227 33920ft 464kts
11-Oct-18 06:02 40.742123 -87.969303 227 33922ft 464kts
11-Oct-18 06:03 40.656334 -88.088579 227 33922ft 465kts
11-Oct-18 06:04 40.567582 -88.211501 227 33954ft 465kts
11-Oct-18 06:05 40.479402 -88.333105 227 33954ft 466kts
11-Oct-18 06:06 40.390999 -88.454550 227 33951ft 467kts
11-Oct-18 06:07 40.302574 -88.575576 227 33951ft 467kts
11-Oct-18 06:08 40.217029 -88.692228 226 33981ft 468kts
11-Oct-18 06:09 40.127541 -88.813842 226 34008ft 469kts
11-Oct-18 06:10 40.040331 -88.931835 226 34006ft 469kts
11-Oct-18 06:11 39.950747 -89.052593 225 34000ft 472kts
11-Oct-18 06:12 39.865729 -89.166956 221 34003ft 453kts
11-Oct-18 06:13 39.767090 -89.298606 221 34010ft 456kts
11-Oct-18 06:14 39.693816 -89.396092 221 34007ft 456kts
11-Oct-18 06:15 39.606234 -89.512244 221 34036ft 456kts
11-Oct-18 06:16 39.518770 -89.627772 221 34009ft 457kts
11-Oct-18 06:17 39.432603 -89.741155 221 34006ft 456kts
11-Oct-18 06:18 39.343883 -89.857436 221 34043ft 456kts
11-Oct-18 06:19 39.255926 -89.972243 221 34029ft 456kts
11-Oct-18 06:20 39.169127 -90.085063 220 34031ft 456kts
11-Oct-18 06:21 39.080095 -90.200326 220 34035ft 455kts
11-Oct-18 06:22 38.991125 -90.314992 220 34034ft 455kts
11-Oct-18 06:23 38.890029 -90.443901 216 34030ft 453kts
11-Oct-18 06:24 38.801398 -90.508364 195 34047ft 440kts
11-Oct-18 06:25 38.686579 -90.557320 194 34036ft 440kts
11-Oct-18 06:26 38.571195 -90.606550 194 34036ft 440kts
11-Oct-18 06:27 38.456723 -90.655303 194 34033ft 440kts
11-Oct-18 06:28 38.341007 -90.704397 194 34030ft 439kts
11-Oct-18 06:29 38.226119 -90.752996 194 34029ft 439kts
11-Oct-18 06:30 38.110546 -90.801736 194 34029ft 439kts
11-Oct-18 06:31 37.994750 -90.850411 194 34028ft 439kts
11-Oct-18 06:32 37.880371 -90.898334 194 34034ft 439kts
11-Oct-18 06:33 37.764245 -90.946831 194 34033ft 439kts
11-Oct-18 06:34 37.648598 -90.994979 194 34033ft 439kts
11-Oct-18 06:35 37.545839 -91.078832 218 34036ft 454kts
11-Oct-18 06:36 37.453735 -91.186452 218 34033ft 453kts
11-Oct-18 06:37 37.361199 -91.293677 218 34033ft 453kts
11-Oct-18 06:38 37.268732 -91.400359 218 34033ft 453kts
11-Oct-18 06:39 37.177403 -91.505441 218 34033ft 453kts
11-Oct-18 06:40 37.084916 -91.611562 218 34033ft 453kts
11-Oct-18 06:41 36.992931 -91.716811 217 34027ft 452kts
11-Oct-18 06:42 36.900389 -91.822398 217 34028ft 453kts
11-Oct-18 06:43 36.809384 -91.926387 218 33579ft 453kts
11-Oct-18 06:44 36.718967 -92.035710 221 32568ft 454kts
11-Oct-18 06:45 36.630028 -92.125187 216 34082ft 348kts
11-Oct-18 06:46 36.558435 -92.210102 216 34106ft 358kts
11-Oct-18 06:47 36.483071 -92.294783 217 34035ft 372kts
11-Oct-18 06:48 36.405359 -92.382067 217 34039ft 384kts
11-Oct-18 06:49 36.325254 -92.471835 217 34039ft 397kts
11-Oct-18 06:50 36.242246 -92.564622 217 34038ft 409kts
11-Oct-18 06:51 36.158821 -92.657630 217 34037ft 420kts
11-Oct-18 06:52 36.072081 -92.754067 217 34032ft 430kts
11-Oct-18 06:53 35.982684 -92.853180 217 34030ft 439kts
11-Oct-18 06:54 35.893316 -92.952011 217 34030ft 439kts
11-Oct-18 06:55 35.803834 -93.050659 217 34034ft 438kts
11-Oct-18 06:56 35.713531 -93.149911 217 34034ft 438kts
11-Oct-18 06:57 35.622847 -93.249286 217 34034ft 438kts
11-Oct-18 06:58 35.533572 -93.346829 217 34034ft 438kts
11-Oct-18 06:59 35.442766 -93.445750 217 34034ft 438kts
11-Oct-18 07:00 35.351956 -93.544372 217 34034ft 438kts
11-Oct-18 07:01 35.260867 -93.642991 217 34034ft 438kts
11-Oct-18 07:02 35.171473 -93.739477 216 34029ft 438kts
11-Oct-18 07:03 35.080163 -93.837744 216 34029ft 438kts
11-Oct-18 07:04 34.989265 -93.935301 216 34025ft 438kts
11-Oct-18 07:05 34.898395 -94.032519 216 34029ft 438kts
11-Oct-18 07:06 34.808882 -94.128014 216 34035ft 438kts
11-Oct-18 07:07 34.717501 -94.225206 216 34035ft 438kts
11-Oct-18 07:08 34.625798 -94.322438 216 34035ft 438kts
11-Oct-18 07:09 34.534391 -94.419056 216 34035ft 438kts
11-Oct-18 07:10 34.442705 -94.515665 216 34035ft 438kts
11-Oct-18 07:11 34.350817 -94.612183 216 34035ft 437kts
11-Oct-18 07:12 34.260155 -94.707113 216 34030ft 437kts
11-Oct-18 07:13 34.168484 -94.802794 216 34029ft 437kts
11-Oct-18 07:14 34.076624 -94.898371 216 34029ft 437kts
11-Oct-18 07:15 33.984632 -94.993781 216 34029ft 437kts
11-Oct-18 07:16 33.893979 -95.087504 216 34030ft 437kts
11-Oct-18 07:17 33.810045 -95.174017 216 34035ft 437kts
11-Oct-18 07:18 33.718606 -95.267977 216 34035ft 437kts
11-Oct-18 07:19 33.626205 -95.362620 216 34035ft 437kts
11-Oct-18 07:20 33.533806 -95.456165 212 34032ft 435kts
11-Oct-18 07:21 33.435531 -95.537486 210 34035ft 433kts
11-Oct-18 07:22 33.336598 -95.619643 210 34035ft 433kts
11-Oct-18 07:23 33.240566 -95.699193 210 34029ft 433kts
11-Oct-18 07:24 33.141883 -95.780730 210 34029ft 433kts
11-Oct-18 07:25 33.046815 -95.859089 210 34029ft 433kts
11-Oct-18 07:26 32.948119 -95.940234 210 34028ft 433kts
11-Oct-18 07:27 32.850850 -96.020003 210 34033ft 433kts
11-Oct-18 07:28 32.751523 -96.101251 210 34034ft 433kts
11-Oct-18 07:29 32.652508 -96.182030 210 34034ft 433kts
11-Oct-18 07:30 32.553771 -96.262371 210 34034ft 433kts
11-Oct-18 07:31 32.454350 -96.343058 210 34034ft 433kts
11-Oct-18 07:32 32.355398 -96.423153 210 34034ft 433kts
11-Oct-18 07:33 32.256394 -96.503077 210 34033ft 433kts
11-Oct-18 07:34 32.157729 -96.582517 210 34033ft 433kts
11-Oct-18 07:35 32.060237 -96.660804 209 34029ft 433kts
11-Oct-18 07:36 31.960990 -96.740267 209 34027ft 433kts
11-Oct-18 07:37 31.863631 -96.818011 209 34033ft 433kts
11-Oct-18 07:38 31.764391 -96.897049 209 34033ft 432kts
11-Oct-18 07:39 31.665546 -96.975567 209 34033ft 432kts
11-Oct-18 07:40 31.566551 -97.053995 209 34033ft 432kts
11-Oct-18 07:41 31.460084 -97.110682 194 34033ft 424kts
11-Oct-18 07:42 31.348512 -97.154099 194 34032ft 424kts
11-Oct-18 07:43 31.236996 -97.197666 194 34032ft 424kts
11-Oct-18 07:44 31.125502 -97.241154 194 34031ft 424kts
11-Oct-18 07:45 31.014273 -97.284446 194 34031ft 424kts
11-Oct-18 07:46 30.902941 -97.327676 194 34030ft 424kts
11-Oct-18 07:47 30.812595 -97.362683 194 34036ft 424kts
11-Oct-18 07:48 30.720051 -97.398472 194 34036ft 424kts
11-Oct-18 07:49 30.591388 -97.448111 194 34035ft 424kts
11-Oct-18 07:50 30.481990 -97.490209 194 34035ft 424kts
11-Oct-18 07:51 30.389269 -97.526052 197 34032ft 425kts
11-Oct-18 07:52 30.285315 -97.594057 207 34033ft 431kts
11-Oct-18 07:53 30.175238 -97.670370 206 34027ft 430kts
11-Oct-18 07:54 30.090385 -97.728885 206 34028ft 430kts
11-Oct-18 07:55 29.988813 -97.798764 206 34028ft 430kts
11-Oct-18 07:56 29.886047 -97.897489 230 34041ft 444kts
11-Oct-18 07:57 29.837870 -98.002848 240 34036ft 450kts
11-Oct-18 07:58 29.762897 -98.113122 216 34042ft 436kts
11-Oct-18 07:59 29.671063 -98.203324 216 34034ft 436kts
11-Oct-18 08:00 29.579267 -98.293743 216 34034ft 436kts
11-Oct-18 08:01 29.487796 -98.383972 216 34034ft 436kts
11-Oct-18 08:02 29.383083 -98.492209 236 34018ft 445kts
11-Oct-18 08:03 29.387507 -98.607079 306 34076ft 472kts
11-Oct-18 08:04 29.498147 -98.645025 28 34078ft 451kts
11-Oct-18 08:05 29.544528 -98.534081 112 34077ft 409kts
11-Oct-18 08:06 29.497909 -98.482307 161 33696ft 412kts
11-Oct-18 08:07 29.391152 -98.523714 217 30337ft 436kts
11-Oct-18 08:08 29.377708 -98.656336 302 27109ft 470kts
11-Oct-18 08:09 29.484379 -98.697800 28 23921ft 421kts
11-Oct-18 08:10 29.523721 -98.596177 103 20834ft 359kts
11-Oct-18 08:11 29.539248 -98.486646 79 18174ft 345kts
11-Oct-18 08:12 29.594345 -98.392153 41 18569ft 383kts
11-Oct-18 08:13 29.685272 -98.327578 38 18941ft 404kts
11-Oct-18 08:14 29.773656 -98.260505 38 17830ft 356kts
11-Oct-18 08:15 29.854322 -98.198900 39 15930ft 344kts
11-Oct-18 08:16 29.863248 -98.116965 147 14079ft 283kts
11-Oct-18 08:17 29.795564 -98.149504 217 12353ft 291kts
11-Oct-18 08:18 29.742353 -98.209003 216 10512ft 248kts
11-Oct-18 08:19 29.696631 -98.260026 215 9614ft 210kts
11-Oct-18 08:20 29.649009 -98.312717 215 8841ft 206kts
11-Oct-18 08:21 29.614718 -98.350483 216 8263ft 209kts
11-Oct-18 08:22 29.572603 -98.396820 217 7583ft 211kts
11-Oct-18 08:23 29.532590 -98.440795 219 6952ft 213kts
11-Oct-18 08:24 29.490140 -98.487407 220 6284ft 213kts
11-Oct-18 08:25 29.447704 -98.533957 222 5647ft 211kts
11-Oct-18 08:26 29.405607 -98.580098 223 5036ft 209kts
11-Oct-18 08:27 29.364065 -98.625770 230 4426ft 206kts
11-Oct-18 08:28 29.381198 -98.656328 41 4324ft 145kts
11-Oct-18 08:29 29.396263 -98.604931 64 3913ft 140kts
11-Oct-18 08:30 29.414423 -98.577906 42 3511ft 129kts
11-Oct-18 08:31 29.441020 -98.550383 36 2485ft 128kts
11-Oct-18 08:32 29.468881 -98.522660 36 1990ft 130kts
11-Oct-18 08:33 29.497543 -98.495142 37 1227ft 131kts
11-Oct-18 08:34 29.525279 -98.467906 34 817ft 116kts
11-Oct-18 08:35 29.532680 -98.462434 227 816ft 16kts
11-Oct-18 08:36 29.528145 -98.466946 222 816ft 23kts
11-Oct-18 08:37 29.527632 -98.471059 148 816ft 0kts
11-Oct-18 08:38 29.527632 -98.471059 149 816ft 0kts
11-Oct-18 08:39 29.527632 -98.471059 149 816ft 0kts
11-Oct-18 08:40 29.527632 -98.471059 149 816ft 0kts
11-Oct-18 08:41 29.527632 -98.471059 149 816ft 0kts

Navigation Log

Ident Type
Flight plan parsing failed, navigation log unavailable